Glorieta, NM

1:32 AM MST on January 30, 2015 (GMT -0700)
mountain glorieta | Change Station
CLOSE
Current Station
Personal Weather Station
Location: Glorieta, NM
Elevation: 7116 ft
Nearby Weather Stations
Active Advisory: Winter Storm Warning

Elev 7116 ft 35.57 °N, 105.72 °W | Updated 9 minutes ago

Overcast
Overcast
32.4 °F
Feels Like 32 °F
N
0.0
Wind Variable Wind from SE

Today
High -- | Low -- °F
--% Chance of Precip.
Yesterday
High -- | Low -- °F
Precip. -- in
7:04 AM 5:28 PM
Waxing Gibbous, 81% visible
Pressure 30.32 in
Visibility 10.0 miles
Clouds Overcast 5000 ft
Windchill 32 °F
Dew Point 15 °F
Humidity 49%
Rainfall 0.00 in
Snow Depth Not available.
UV 0 out of 12
Pollen 4.80 out of 12
Air Quality Not available.
Flu Activity Not available.
METAR KSAF 300753Z AUTO 14013KT 10SM OVC050 03/M10 A3041 RMK AO2 SLP266 T00331100

More Conditions Fewer Conditions

Pressure 30.32 in
Visibility 10.0 miles
Clouds Overcast 5000 ft
Windchill 32 °F
Dew Point 15 °F
Humidity 49%
Rainfall 0.00 in
Snow Depth Not available.
UV 0 out of 12
Pollen 4.80 out of 12
Air Quality Not available.
Flu Activity Not available.
METAR KSAF 300753Z AUTO 14013KT 10SM OVC050 03/M10 A3041 RMK AO2 SLP266 T00331100

More Conditions Fewer Conditions

Nowcast | as of 10:59 PM MST on January 29, 2015

Into the late night hours...rain and snow will increase in coverage and intensity from the east slopes of the Central Mountain chain westward to the Continental Divide. The snow level should gradually lower to around 6500 feet. Therefore...periods of snow may impact Interstate 40 west and east of Albuquerque...and Interstate 25 from La Bajada Hill northward. Around 1 or 2 inches of new snow accumulation will be possible mainly along west facing slopes of the mountains by 2 am MST. For the latest Road conditions visit nm roads.Com or dial 511.

×

10-Day Weather Forecast

Almanac

Astronomy

Jan. 30, 2015 Rise Set
Actual Time
Civil Twilight
Nautical Twilight
Astronomical Twilight
Moon
Length of Visible Light
Length of Day
Tomorrow will be .
, % of the Moon is Illuminated

Today's Extremes

State Highs State Lows

Community

WunderPhotos

Upload Photos

1,791,730 photos uploaded!

WunderBlogs® & News

Nearby

Air Quality

  Air Quality AQ Index Pollutant
Not available.

Snow Depth

Station Depth Elevation

Earthquake Activity

City Distance Mag. Time & Date
Minimum magnitude displayed is 2.5.

Coastal Water Temperatures

Place Temperature

Nearby Weather Stations